createdAt,value
2019-02-28T00:00:06.613Z,16.93
2019-02-28T00:05:11.171Z,14.87
2019-02-28T00:10:16.646Z,17.03
2019-02-28T00:15:22.139Z,16.33
2019-02-28T00:20:29.153Z,21.47
2019-02-28T00:25:37.517Z,23.80
2019-02-28T00:30:42.361Z,20.20
2019-02-28T00:35:47.763Z,23.07
2019-02-28T00:40:54.211Z,20.40
2019-02-28T00:45:59.805Z,28.30
2019-02-28T00:51:05.453Z,24.50
2019-02-28T00:56:11.452Z,26.07
2019-02-28T01:01:16.905Z,22.00
2019-02-28T01:06:22.493Z,22.57
2019-02-28T01:11:28.233Z,28.70
2019-02-28T01:16:33.959Z,24.67
2019-02-28T01:21:39.719Z,20.70
2019-02-28T01:26:46.766Z,25.60
2019-02-28T01:31:52.152Z,26.93
2019-02-28T01:36:57.781Z,30.07
2019-02-28T01:42:03.307Z,22.43
2019-02-28T01:47:09.010Z,31.87
2019-02-28T01:52:14.512Z,25.70
2019-02-28T01:57:19.929Z,24.83
2019-02-28T02:02:25.605Z,22.93
2019-02-28T02:07:33.344Z,27.87
2019-02-28T02:12:38.043Z,29.67
2019-02-28T02:17:43.455Z,24.07
2019-02-28T02:22:48.926Z,28.03
2019-02-28T02:27:54.449Z,24.57
2019-02-28T02:32:59.987Z,29.23
2019-02-28T02:38:05.474Z,29.27
2019-02-28T02:43:11.007Z,27.67
2019-02-28T02:48:16.595Z,27.27
2019-02-28T02:53:22.097Z,27.67
2019-02-28T02:58:28.199Z,27.47
2019-02-28T03:03:33.623Z,32.53
2019-02-28T03:08:39.365Z,30.43
2019-02-28T03:13:44.924Z,29.50
2019-02-28T03:18:56.553Z,28.77
2019-02-28T03:23:57.574Z,25.43
2019-02-28T03:29:07.508Z,27.43
2019-02-28T03:34:13.755Z,33.90
2019-02-28T03:39:24.229Z,30.77
2019-02-28T03:44:24.761Z,30.67
2019-02-28T03:49:30.176Z,31.93
2019-02-28T03:54:35.684Z,30.73
2019-02-28T03:59:41.743Z,34.57
2019-02-28T04:04:50.199Z,32.93
2019-02-28T04:09:54.323Z,38.70
2019-02-28T04:14:59.813Z,33.77
2019-02-28T04:20:05.532Z,34.00
2019-02-28T04:25:11.111Z,31.43
2019-02-28T04:30:16.637Z,34.53
2019-02-28T04:35:25.261Z,33.33
2019-02-28T04:40:29.523Z,36.60
2019-02-28T04:45:35.291Z,37.93
2019-02-28T04:50:40.750Z,44.97
2019-02-28T04:55:46.105Z,41.60
2019-02-28T05:00:51.576Z,42.47
2019-02-28T05:05:57.150Z,44.43
2019-02-28T05:11:03.185Z,45.67
2019-02-28T05:16:09.348Z,45.20
2019-02-28T05:21:16.554Z,39.87
2019-02-28T05:26:23.416Z,41.00
2019-02-28T05:31:28.900Z,38.60
2019-02-28T05:36:37.870Z,41.43
2019-02-28T05:41:42.010Z,39.30
2019-02-28T05:46:47.632Z,36.83
2019-02-28T05:51:53.235Z,44.47
2019-02-28T05:56:58.646Z,45.23
2019-02-28T06:02:04.134Z,49.63
2019-02-28T06:07:09.688Z,52.40
2019-02-28T06:12:15.304Z,54.00
2019-02-28T06:17:21.861Z,59.43
2019-02-28T06:22:27.326Z,59.73
2019-02-28T06:27:41.197Z,52.23
2019-02-28T06:32:40.113Z,42.83
2019-02-28T06:37:45.922Z,40.90
2019-02-28T06:42:51.437Z,37.97
2019-02-28T06:47:56.805Z,38.50
2019-02-28T06:53:02.291Z,35.50
2019-02-28T06:58:07.697Z,38.93
2019-02-28T07:03:13.308Z,30.80
2019-02-28T07:08:20.722Z,36.10
2019-02-28T07:13:25.795Z,39.53
2019-02-28T07:18:31.571Z,37.13
2019-02-28T07:23:37.096Z,39.40
2019-02-28T07:28:42.680Z,44.80
2019-02-28T07:33:48.067Z,44.17
2019-02-28T07:38:53.670Z,43.07
2019-02-28T07:43:59.317Z,48.37
2019-02-28T07:49:05.000Z,32.77
2019-02-28T07:54:12.632Z,32.50
2019-02-28T07:59:17.752Z,32.30
2019-02-28T08:04:23.344Z,30.63
2019-02-28T08:09:36.857Z,37.33
2019-02-28T08:14:43.670Z,28.63
2019-02-28T08:19:48.985Z,29.57
2019-02-28T08:24:54.441Z,30.77
2019-02-28T08:29:59.920Z,29.77
2019-02-28T08:35:05.591Z,28.03
2019-02-28T08:40:15.775Z,25.33
2019-02-28T08:45:21.928Z,24.30
2019-02-28T08:50:27.606Z,25.80
2019-02-28T08:55:33.479Z,24.73
2019-02-28T09:00:39.158Z,26.67
2019-02-28T09:05:45.308Z,26.47
2019-02-28T09:10:51.165Z,31.00
2019-02-28T09:15:57.318Z,25.63
2019-02-28T09:21:03.037Z,26.80
2019-02-28T09:26:08.752Z,25.10
2019-02-28T09:31:14.540Z,30.27
2019-02-28T09:36:20.891Z,35.03
2019-02-28T09:41:27.246Z,35.93
2019-02-28T09:46:32.983Z,33.47
2019-02-28T09:51:38.932Z,33.30
2019-02-28T09:56:45.305Z,35.13
2019-02-28T10:01:51.018Z,36.40
2019-02-28T10:06:56.999Z,36.60
2019-02-28T10:12:04.702Z,39.43
2019-02-28T10:17:10.128Z,42.63
2019-02-28T10:22:15.668Z,42.50
2019-02-28T10:27:23.303Z,45.40
2019-02-28T10:32:28.646Z,42.07
2019-02-28T10:37:35.654Z,47.73
2019-02-28T10:42:41.507Z,45.97
2019-02-28T10:47:46.996Z,43.60
2019-02-28T10:52:52.674Z,39.60
2019-02-28T10:57:58.147Z,48.30
2019-02-28T11:03:03.754Z,45.50
2019-02-28T11:08:12.474Z,38.10
2019-02-28T11:13:18.470Z,43.93
2019-02-28T11:18:24.107Z,38.30
2019-02-28T11:23:29.549Z,35.30
2019-02-28T11:28:35.025Z,39.73
2019-02-28T11:33:40.509Z,34.70
2019-02-28T11:38:45.924Z,45.87
2019-02-28T11:43:51.708Z,35.73
2019-02-28T11:48:57.445Z,35.60
2019-02-28T11:54:02.990Z,38.17
2019-02-28T11:59:08.442Z,36.93
2019-02-28T12:04:14.044Z,36.07
2019-02-28T12:09:20.114Z,37.87
2019-02-28T12:14:26.437Z,43.03
2019-02-28T12:19:32.742Z,42.23
2019-02-28T12:24:38.144Z,39.17
2019-02-28T12:29:45.692Z,45.10
2019-02-28T12:34:50.921Z,37.80
2019-02-28T12:39:56.703Z,56.43
2019-02-28T12:45:02.636Z,55.70
2019-02-28T12:50:09.219Z,61.83
2019-02-28T12:55:16.266Z,62.87
2019-02-28T13:00:25.362Z,93.23
2019-02-28T13:05:30.886Z,82.87
2019-02-28T13:10:36.538Z,83.67
2019-02-28T13:15:45.499Z,91.73
2019-02-28T13:20:49.134Z,71.50
2019-02-28T13:25:59.176Z,65.60
2019-02-28T13:31:02.026Z,59.83
2019-02-28T13:36:07.419Z,52.67
2019-02-28T13:41:17.807Z,49.87
2019-02-28T13:46:20.283Z,55.73
2019-02-28T13:51:25.751Z,45.03
2019-02-28T13:56:33.130Z,47.67
2019-02-28T14:01:39.859Z,42.70
2019-02-28T14:06:45.542Z,43.77
2019-02-28T14:11:51.951Z,44.17
2019-02-28T14:16:58.350Z,43.00
2019-02-28T14:22:04.267Z,42.93
2019-02-28T14:27:09.872Z,36.23
2019-02-28T14:32:15.626Z,32.97
2019-02-28T14:37:21.166Z,43.87
2019-02-28T14:42:27.037Z,36.97
2019-02-28T14:47:32.944Z,33.13
2019-02-28T14:52:39.402Z,26.70
2019-02-28T14:57:45.069Z,24.73
2019-02-28T15:02:50.803Z,29.70
2019-02-28T15:07:56.505Z,26.37
2019-02-28T15:13:02.183Z,22.20
2019-02-28T15:18:11.039Z,17.57
2019-02-28T15:23:15.529Z,17.17
2019-02-28T15:28:21.347Z,19.70
2019-02-28T15:33:27.508Z,19.00
2019-02-28T15:38:33.461Z,19.40
2019-02-28T15:43:39.392Z,15.50
2019-02-28T15:48:45.217Z,15.57
2019-02-28T15:53:50.717Z,18.10
2019-02-28T15:58:56.154Z,12.57
2019-02-28T16:04:01.530Z,19.77
2019-02-28T16:09:11.114Z,18.80
2019-02-28T16:14:16.493Z,17.27
2019-02-28T16:19:22.722Z,15.43
2019-02-28T16:24:30.878Z,12.27
2019-02-28T16:29:36.351Z,13.67
2019-02-28T16:34:42.231Z,17.10
2019-02-28T16:39:49.836Z,16.07
2019-02-28T16:44:55.314Z,17.27
2019-02-28T16:50:00.728Z,16.63
2019-02-28T16:55:06.737Z,16.27
2019-02-28T17:00:13.608Z,15.17
2019-02-28T17:05:19.051Z,19.00
2019-02-28T17:10:30.250Z,14.83
2019-02-28T17:16:01.383Z,13.30
2019-02-28T17:21:03.437Z,15.57
2019-02-28T17:26:09.044Z,13.87
2019-02-28T17:31:31.760Z,15.90
2019-02-28T17:36:37.233Z,14.70
2019-02-28T17:41:42.745Z,16.20
2019-02-28T17:46:51.552Z,20.87
2019-02-28T17:52:18.323Z,20.20
2019-02-28T17:58:29.801Z,14.17
2019-02-28T18:04:45.184Z,16.40
2019-02-28T18:10:25.122Z,16.13
2019-02-28T18:16:09.433Z,16.83
2019-02-28T18:21:51.648Z,17.40
2019-02-28T18:27:55.942Z,16.33
2019-02-28T18:33:03.154Z,14.53
2019-02-28T18:38:08.772Z,14.40
2019-02-28T18:43:14.807Z,16.73
2019-02-28T18:48:20.754Z,12.70
2019-02-28T18:53:26.670Z,16.77
2019-02-28T18:58:32.387Z,17.13
2019-02-28T19:03:38.194Z,14.67
2019-02-28T19:08:43.693Z,13.87
2019-02-28T19:13:49.188Z,13.20
2019-02-28T19:18:54.693Z,14.23
2019-02-28T19:24:00.027Z,15.20
2019-02-28T19:29:05.543Z,15.57
2019-02-28T19:34:10.949Z,16.30
2019-02-28T19:39:16.358Z,14.43
2019-02-28T19:44:23.657Z,16.27
2019-02-28T19:49:29.263Z,21.30
2019-02-28T19:54:34.715Z,20.30
2019-02-28T19:59:40.078Z,23.50
2019-02-28T20:04:45.773Z,21.70
2019-02-28T20:09:51.183Z,19.10
2019-02-28T20:14:56.577Z,18.53
2019-02-28T20:20:02.144Z,20.30
2019-02-28T20:25:10.198Z,19.63
2019-02-28T20:30:17.057Z,23.77
2019-02-28T20:35:26.474Z,20.30
2019-02-28T20:40:29.739Z,17.90
2019-02-28T20:45:35.209Z,26.67
2019-02-28T20:50:42.160Z,19.93
2019-02-28T20:55:47.696Z,18.33
2019-02-28T21:00:53.158Z,15.13
2019-02-28T21:05:58.527Z,16.40
2019-02-28T21:11:03.960Z,17.80
2019-02-28T21:16:09.460Z,15.57
2019-02-28T21:21:14.842Z,14.97
2019-02-28T21:26:20.317Z,15.87
2019-02-28T21:31:25.781Z,17.10
2019-02-28T21:36:31.528Z,17.97
2019-02-28T21:41:37.008Z,17.50
2019-02-28T21:46:42.378Z,14.87
2019-02-28T21:51:47.999Z,15.60
2019-02-28T21:56:54.804Z,16.20
2019-02-28T22:02:00.306Z,16.40
2019-02-28T22:07:05.743Z,10.67
2019-02-28T22:12:11.146Z,17.20
2019-02-28T22:17:17.180Z,16.70
2019-02-28T22:22:23.228Z,18.00
2019-02-28T22:27:29.041Z,14.37
2019-02-28T22:32:41.981Z,12.80
2019-02-28T22:37:47.780Z,9.40
2019-02-28T22:42:53.542Z,9.20
2019-02-28T22:47:59.470Z,6.00
2019-02-28T22:53:04.893Z,10.17
2019-02-28T22:58:11.405Z,6.93
2019-02-28T23:03:17.686Z,5.93
2019-02-28T23:08:23.369Z,5.33
2019-02-28T23:13:29.229Z,4.17
2019-02-28T23:18:34.970Z,4.80
2019-02-28T23:23:40.959Z,6.40
2019-02-28T23:28:55.398Z,5.23
2019-02-28T23:34:05.171Z,5.93
2019-02-28T23:39:11.181Z,10.20
2019-02-28T23:44:16.626Z,6.83
2019-02-28T23:49:23.037Z,6.47
2019-02-28T23:54:28.783Z,8.73
2019-02-28T23:59:34.322Z,9.10
